Cranbrook Airport
CYXC : rendu visible

Aérodrome :











RETROUVEZ-NOUS SUR...

 
LOGIN :

S'inscrire | Disclaimer

   EN    FR    IT 

 









Légende :    VFR   VFR Marginal   IFR   IFR Intensif   IFR Très Intensif
Visi : 
Plafond : 
>= 8 km
>= 3000ft
5 à 8 km
1000 à 3000 ft
1500m à 5 km
500 à 1000 ft
800 à 1500m
200 à 500 ft
< 800m
< 200 ft
Symboles :   Orages  Brouillard  Fortes neiges  Fortes précipitations  Vent > 20 kt






- Altitude de l'aérodrome : 3082 ft
- Code IATA : YXC


CYXC - Cranbrook

DERNIER METAR :
  • 150700Z 00000KT 25SM OVC026 M01/M02 A3012 RMK SC8 SLP236

METARs EXPIRÉS :
  • 150600Z 00000KT 15SM OVC028 M01/M01 A3013 RMK SC8 SLP239
  • 150500Z 21002KT 15SM OVC029 M01/M01 A3014 RMK SC8 SLP243

TAF TAF CYXC
Valide du 15 à 07h jusqu'au 15 à 19h UTC


150638Z 1507/1519 VRB03KT P6SM OVC030
TEMPO 1507/1512 4SM -SHSN BKN020
FM151200 VRB03KT P6SM SCT015 OVC030
TEMPO 1512/1519 4SM -SHSN SCT008 OVC015 RMK NXT FCST BY 151300Z



MET'MAP, la Météo Aéronautique d'un coup d'oeil ! - Copyright ORBIFLY Décembre 2007 - Disclaimer

ORBIFLY MET'MAP TEAM :

Programmation & Développement : Alexandra Zaïnal
Conception & Développement : Baudouin d'Aumeries
Co-Programmation & Développement : Marc-Olivier Méhu
Soutien technique & logistique : Manuel Goepfert

Contact : metmap@orbifly.com




SOURCES & CREDITS :

   NOAA       Earth
Advisory